Terminal Aerodrome Forecast
Issued by NWS

Home | Current Version | Previous Version | Text Only | Print | Product List | Glossary On
Versions: 1 2 3 4 5 6 7 8 9 10 11 12 13 14
361
FTUS45 KTFX 231146
TAFHVR
TAF
KHVR 231146Z 2312/2412 09018G23KT P6SM BKN009
     FM231600 08015G21KT P6SM SCT015 BKN030
     FM232200 10010KT P6SM VCSH SCT025 BKN040
      TEMPO 2323/2403 -SHRA BKN020
     FM240500 08006KT P6SM SCT030 BKN050=

USA.gov is the U.S. government's official web portal to all federal, state and local government web resources and services.